createdAt,value
2018-09-14T00:00:13.946Z,10.53
2018-09-14T00:02:42.904Z,10.00
2018-09-14T00:05:11.909Z,13.27
2018-09-14T00:07:41.127Z,15.40
2018-09-14T00:10:14.282Z,12.40
2018-09-14T00:12:43.380Z,16.87
2018-09-14T00:15:12.425Z,12.40
2018-09-14T00:17:41.457Z,13.10
2018-09-14T00:20:13.220Z,13.93
2018-09-14T00:25:35.314Z,11.80
2018-09-14T00:28:04.220Z,15.40
2018-09-14T00:30:36.475Z,14.90
2018-09-14T00:33:05.614Z,11.70
2018-09-14T00:35:34.566Z,13.43
2018-09-14T00:38:04.600Z,13.10
2018-09-14T00:40:33.683Z,10.93
2018-09-14T00:43:04.806Z,14.87
2018-09-14T00:45:40.810Z,14.40
2018-09-14T00:48:10.747Z,11.83
2018-09-14T00:50:39.718Z,11.97
2018-09-14T00:53:14.564Z,13.10
2018-09-14T00:58:35.217Z,15.17
2018-09-14T01:01:04.234Z,11.63
2018-09-14T01:03:52.378Z,12.27
2018-09-14T01:06:22.381Z,14.40
2018-09-14T01:08:52.027Z,13.97
2018-09-14T01:11:21.398Z,12.10
2018-09-14T01:13:53.828Z,14.57
2018-09-14T01:16:32.859Z,10.90
2018-09-14T01:19:07.681Z,14.60
2018-09-14T01:21:40.443Z,12.37
2018-09-14T01:24:10.108Z,14.80
2018-09-14T01:26:46.098Z,12.63
2018-09-14T01:29:18.965Z,15.53
2018-09-14T01:31:48.180Z,12.57
2018-09-14T01:34:25.521Z,11.43
2018-09-14T01:36:58.310Z,13.17
2018-09-14T01:39:27.408Z,12.57
2018-09-14T01:41:57.223Z,12.67
2018-09-14T01:44:26.228Z,10.60
2018-09-14T01:46:55.285Z,13.53
2018-09-14T01:49:28.989Z,12.53
2018-09-14T01:52:11.227Z,13.60
2018-09-14T01:54:43.885Z,10.53
2018-09-14T01:57:19.372Z,12.43
2018-09-14T01:59:48.276Z,11.33
2018-09-14T02:02:17.370Z,23.07
2018-09-14T02:04:47.347Z,15.00
2018-09-14T02:07:17.282Z,13.43
2018-09-14T02:09:48.471Z,11.83
2018-09-14T02:12:17.538Z,12.77
2018-09-14T02:14:47.640Z,9.77
2018-09-14T02:17:23.098Z,10.40
2018-09-14T02:19:52.093Z,11.73
2018-09-14T02:22:21.066Z,9.57
2018-09-14T02:24:50.143Z,13.63
2018-09-14T02:27:23.738Z,13.43
2018-09-14T02:29:58.056Z,15.53
2018-09-14T02:32:33.490Z,12.93
2018-09-14T02:35:02.900Z,14.67
2018-09-14T02:37:31.875Z,11.13
2018-09-14T02:40:06.992Z,12.17
2018-09-14T02:42:39.689Z,11.73
2018-09-14T02:45:08.846Z,9.67
2018-09-14T02:47:37.842Z,11.93
2018-09-14T02:50:07.340Z,11.17
2018-09-14T02:52:36.659Z,11.50
2018-09-14T02:55:05.826Z,12.93
2018-09-14T02:57:34.730Z,14.47
2018-09-14T03:00:10.064Z,13.67
2018-09-14T03:02:39.228Z,9.60
2018-09-14T03:05:08.231Z,10.97
2018-09-14T03:07:39.046Z,9.03
2018-09-14T03:10:12.161Z,10.23
2018-09-14T03:12:41.605Z,9.87
2018-09-14T03:15:11.570Z,13.37
2018-09-14T03:17:41.525Z,13.00
2018-09-14T03:20:10.976Z,11.90
2018-09-14T03:22:39.851Z,10.47
2018-09-14T03:25:09.917Z,12.30
2018-09-14T03:27:39.198Z,9.97
2018-09-14T03:30:08.089Z,9.67
2018-09-14T03:32:36.988Z,13.43
2018-09-14T03:35:06.721Z,9.27
2018-09-14T03:37:42.108Z,10.63
2018-09-14T03:40:11.477Z,12.00
2018-09-14T03:42:40.684Z,12.43
2018-09-14T03:45:09.731Z,12.73
2018-09-14T03:47:39.016Z,12.00
2018-09-14T03:50:08.120Z,9.27
2018-09-14T03:52:37.153Z,10.57
2018-09-14T03:55:07.632Z,13.13
2018-09-14T03:57:36.555Z,12.27
2018-09-14T04:00:05.459Z,14.73
2018-09-14T04:02:35.018Z,11.57
2018-09-14T04:05:04.142Z,13.77
2018-09-14T04:07:33.119Z,12.37
2018-09-14T04:10:02.612Z,11.47
2018-09-14T04:12:31.481Z,13.83
2018-09-14T04:15:00.357Z,11.40
2018-09-14T04:17:29.342Z,11.20
2018-09-14T04:19:58.334Z,12.00
2018-09-14T04:22:27.301Z,13.60
2018-09-14T04:24:56.183Z,10.13
2018-09-14T04:27:25.290Z,11.20
2018-09-14T04:29:54.209Z,12.07
2018-09-14T04:32:23.115Z,13.97
2018-09-14T04:34:52.111Z,12.63
2018-09-14T04:37:21.267Z,14.37
2018-09-14T04:39:50.427Z,12.53
2018-09-14T04:42:19.462Z,15.00
2018-09-14T04:44:48.412Z,13.07
2018-09-14T04:47:17.341Z,11.80
2018-09-14T04:49:46.175Z,17.13
2018-09-14T04:52:15.257Z,15.90
2018-09-14T04:54:44.619Z,13.93
2018-09-14T04:57:13.621Z,15.67
2018-09-14T04:59:42.681Z,15.43
2018-09-14T05:02:12.003Z,13.17
2018-09-14T05:04:40.960Z,12.27
2018-09-14T05:07:17.307Z,12.80
2018-09-14T05:10:09.272Z,17.13
2018-09-14T05:12:38.314Z,13.27
2018-09-14T05:15:07.364Z,12.50
2018-09-14T05:17:36.223Z,14.57
2018-09-14T05:20:05.123Z,13.30
2018-09-14T05:22:34.302Z,17.97
2018-09-14T05:25:03.383Z,20.33
2018-09-14T05:27:32.316Z,10.00
2018-09-14T05:30:01.347Z,16.93
2018-09-14T05:32:30.544Z,16.77
2018-09-14T05:35:00.856Z,16.37
2018-09-14T05:37:30.818Z,12.43
2018-09-14T05:40:03.162Z,13.93
2018-09-14T05:42:48.613Z,13.10
2018-09-14T05:45:23.309Z,12.27
2018-09-14T05:48:04.377Z,17.00
2018-09-14T05:50:42.015Z,17.57
2018-09-14T05:53:10.999Z,15.00
2018-09-14T05:55:41.880Z,16.50
2018-09-14T05:58:11.856Z,14.10
2018-09-14T06:00:40.906Z,19.47
2018-09-14T06:03:10.214Z,11.87
2018-09-14T06:05:40.161Z,12.10
2018-09-14T06:08:09.157Z,12.67
2018-09-14T06:10:38.754Z,13.60
2018-09-14T06:13:09.658Z,14.03
2018-09-14T06:15:38.570Z,12.93
2018-09-14T06:18:08.009Z,14.17
2018-09-14T06:20:36.926Z,13.77
2018-09-14T06:23:05.997Z,14.13
2018-09-14T06:25:35.182Z,10.87
2018-09-14T06:28:04.174Z,13.47
2018-09-14T06:30:34.504Z,17.17
2018-09-14T06:33:03.420Z,26.93
2018-09-14T06:35:32.337Z,10.83
2018-09-14T06:38:01.388Z,8.83
2018-09-14T06:40:30.273Z,11.13
2018-09-14T06:43:01.898Z,14.60
2018-09-14T06:45:30.817Z,10.40
2018-09-14T06:47:59.948Z,12.27
2018-09-14T06:50:29.598Z,13.60
2018-09-14T06:52:59.316Z,11.30
2018-09-14T06:55:28.278Z,9.80
2018-09-14T06:57:57.575Z,14.53
2018-09-14T07:00:26.750Z,9.17
2018-09-14T07:02:58.012Z,7.40
2018-09-14T07:05:26.864Z,7.07
2018-09-14T07:07:55.892Z,7.97
2018-09-14T07:10:25.156Z,9.23
2018-09-14T07:12:53.979Z,8.83
2018-09-14T07:15:23.116Z,7.47
2018-09-14T07:17:52.399Z,7.10
2018-09-14T07:20:21.264Z,6.47
2018-09-14T07:22:50.080Z,7.53
2018-09-14T07:25:19.464Z,7.43
2018-09-14T07:27:49.305Z,9.33
2018-09-14T07:30:18.226Z,9.97
2018-09-14T07:32:48.577Z,8.63
2018-09-14T07:35:17.517Z,5.27
2018-09-14T07:37:46.391Z,7.15
2018-09-14T07:40:15.845Z,8.75
2018-09-14T07:42:44.923Z,5.55
2018-09-14T07:45:13.732Z,6.72
2018-09-14T07:47:42.754Z,7.45
2018-09-14T07:50:11.489Z,8.23
2018-09-14T07:52:40.657Z,6.72
2018-09-14T07:55:09.629Z,7.87
2018-09-14T07:57:39.554Z,9.20
2018-09-14T08:00:08.454Z,7.03
2018-09-14T08:02:37.896Z,8.48
2018-09-14T08:05:07.027Z,6.30
2018-09-14T08:07:35.876Z,6.03
2018-09-14T08:10:05.170Z,6.40
2018-09-14T08:12:34.109Z,6.40
2018-09-14T08:15:03.208Z,8.70
2018-09-14T08:17:32.298Z,8.20
2018-09-14T08:20:01.545Z,8.13
2018-09-14T08:22:30.483Z,5.85
2018-09-14T08:24:59.948Z,7.28
2018-09-14T08:27:28.877Z,5.42
2018-09-14T08:29:57.934Z,6.90
2018-09-14T08:32:27.265Z,5.15
2018-09-14T08:34:56.227Z,8.08
2018-09-14T08:37:25.222Z,5.28
2018-09-14T08:39:54.347Z,5.60
2018-09-14T08:42:23.502Z,5.95
2018-09-14T08:44:52.644Z,8.18
2018-09-14T08:47:21.580Z,4.03
2018-09-14T08:49:52.544Z,6.90
2018-09-14T08:52:22.824Z,8.55
2018-09-14T08:54:51.750Z,6.37
2018-09-14T08:57:20.661Z,7.67
2018-09-14T08:59:50.019Z,9.43
2018-09-14T09:02:19.098Z,6.00
2018-09-14T09:04:48.194Z,7.90
2018-09-14T09:07:18.764Z,6.20
2018-09-14T09:09:47.646Z,5.35
2018-09-14T09:12:16.755Z,6.97
2018-09-14T09:14:45.717Z,10.10
2018-09-14T09:17:14.673Z,5.08
2018-09-14T09:19:43.651Z,5.65
2018-09-14T09:22:12.884Z,6.70
2018-09-14T09:24:41.990Z,5.40
2018-09-14T09:27:10.913Z,5.15
2018-09-14T09:29:39.996Z,5.72
2018-09-14T09:32:10.041Z,7.40
2018-09-14T09:34:39.138Z,4.87
2018-09-14T09:37:08.211Z,7.17
2018-09-14T09:39:37.235Z,6.12
2018-09-14T09:42:08.790Z,6.78
2018-09-14T09:44:37.705Z,4.17
2018-09-14T09:47:06.597Z,3.95
2018-09-14T09:49:36.907Z,4.87
2018-09-14T09:52:06.201Z,4.17
2018-09-14T09:54:35.137Z,4.33
2018-09-14T09:57:04.149Z,8.38
2018-09-14T09:59:32.942Z,10.35
2018-09-14T10:02:07.389Z,5.10
2018-09-14T10:04:41.421Z,7.80
2018-09-14T10:07:11.779Z,5.15
2018-09-14T10:09:40.726Z,5.00
2018-09-14T10:12:09.839Z,6.33
2018-09-14T10:14:38.987Z,4.78
2018-09-14T10:17:07.957Z,6.33
2018-09-14T10:19:37.111Z,5.97
2018-09-14T10:22:06.545Z,5.20
2018-09-14T10:24:35.350Z,6.55
2018-09-14T10:27:04.393Z,5.58
2018-09-14T10:29:33.821Z,5.72
2018-09-14T10:32:02.848Z,5.50
2018-09-14T10:34:31.696Z,5.30
2018-09-14T10:37:01.180Z,6.08
2018-09-14T10:39:30.525Z,4.60
2018-09-14T10:41:59.463Z,5.20
2018-09-14T10:44:28.543Z,6.00
2018-09-14T10:46:57.513Z,4.47
2018-09-14T10:49:26.584Z,5.08
2018-09-14T10:51:55.537Z,5.20
2018-09-14T10:54:24.650Z,5.40
2018-09-14T10:56:53.552Z,5.83
2018-09-14T10:59:22.540Z,5.58
2018-09-14T11:01:51.350Z,7.67
2018-09-14T11:04:20.311Z,4.50
2018-09-14T11:06:49.770Z,5.10
2018-09-14T11:09:18.745Z,5.78
2018-09-14T11:11:47.848Z,5.67
2018-09-14T11:14:17.477Z,5.20
2018-09-14T11:16:46.361Z,6.20
2018-09-14T11:19:15.208Z,5.58
2018-09-14T11:21:44.467Z,4.67
2018-09-14T11:24:13.405Z,5.72
2018-09-14T11:26:42.519Z,4.60
2018-09-14T11:29:11.811Z,6.30
2018-09-14T11:31:40.680Z,4.10
2018-09-14T11:34:09.574Z,8.73
2018-09-14T11:36:38.522Z,5.62
2018-09-14T11:39:09.802Z,8.83
2018-09-14T11:41:39.015Z,7.03
2018-09-14T11:44:07.921Z,5.83
2018-09-14T11:46:36.965Z,7.00
2018-09-14T11:49:05.765Z,4.97
2018-09-14T11:51:34.633Z,4.62
2018-09-14T11:54:03.798Z,4.40
2018-09-14T11:56:32.966Z,6.55
2018-09-14T11:59:02.010Z,5.78
2018-09-14T12:01:31.004Z,5.97
2018-09-14T12:04:00.100Z,3.75
2018-09-14T12:06:29.031Z,3.50
2018-09-14T12:08:57.923Z,5.08
2018-09-14T12:11:27.228Z,5.45
2018-09-14T12:13:56.139Z,3.25
2018-09-14T12:16:25.103Z,4.35
2018-09-14T12:18:54.106Z,5.17
2018-09-14T12:21:22.849Z,4.03
2018-09-14T12:23:51.933Z,6.92
2018-09-14T12:26:21.383Z,4.42
2018-09-14T12:28:50.144Z,2.83
2018-09-14T12:31:19.226Z,6.47
2018-09-14T12:33:48.367Z,3.00
2018-09-14T12:36:17.601Z,3.37
2018-09-14T12:38:46.614Z,6.20
2018-09-14T12:41:15.923Z,4.40
2018-09-14T12:43:44.847Z,4.33
2018-09-14T12:46:13.817Z,5.65
2018-09-14T12:48:43.205Z,4.65
2018-09-14T12:51:12.006Z,6.40
2018-09-14T12:53:40.903Z,13.22
2018-09-14T12:56:10.289Z,10.32
2018-09-14T12:58:39.265Z,3.72
2018-09-14T13:01:08.212Z,4.45
2018-09-14T13:03:37.264Z,4.03
2018-09-14T13:06:06.348Z,5.03
2018-09-14T13:08:35.288Z,5.22
2018-09-14T13:11:04.650Z,4.53
2018-09-14T13:16:12.247Z,5.28
2018-09-14T13:18:41.536Z,3.87
2018-09-14T13:21:10.495Z,5.10
2018-09-14T13:23:41.657Z,8.55
2018-09-14T13:26:10.980Z,6.33
2018-09-14T13:28:40.921Z,3.80
2018-09-14T13:31:10.655Z,6.65
2018-09-14T13:33:39.451Z,5.85
2018-09-14T13:36:08.486Z,4.20
2018-09-14T13:38:37.742Z,5.10
2018-09-14T13:41:06.988Z,4.25
2018-09-14T13:43:38.355Z,4.78
2018-09-14T13:46:10.477Z,4.55
2018-09-14T13:48:40.470Z,4.03
2018-09-14T13:51:09.407Z,4.58
2018-09-14T13:53:38.264Z,4.97
2018-09-14T13:56:07.538Z,3.67
2018-09-14T13:58:36.502Z,5.65
2018-09-14T14:01:05.452Z,6.08
2018-09-14T14:03:34.800Z,4.67
2018-09-14T14:06:03.901Z,6.90
2018-09-14T14:08:32.746Z,3.25
2018-09-14T14:11:01.589Z,3.80
2018-09-14T14:13:30.461Z,5.22
2018-09-14T14:15:59.286Z,3.42
2018-09-14T14:18:28.292Z,3.77
2018-09-14T14:20:57.333Z,6.33
2018-09-14T14:23:26.233Z,5.03
2018-09-14T14:25:55.424Z,6.17
2018-09-14T14:28:24.277Z,9.98
2018-09-14T14:30:53.406Z,6.58
2018-09-14T14:33:22.706Z,5.70
2018-09-14T14:35:51.662Z,6.35
2018-09-14T14:38:20.577Z,6.10
2018-09-14T14:40:49.997Z,4.55
2018-09-14T14:43:18.881Z,6.10
2018-09-14T14:45:47.964Z,5.72
2018-09-14T14:48:16.888Z,6.00
2018-09-14T14:50:45.729Z,5.37
2018-09-14T14:53:14.637Z,9.35
2018-09-14T14:55:43.916Z,9.20
2018-09-14T14:58:12.728Z,3.98
2018-09-14T15:00:41.583Z,6.10
2018-09-14T15:03:10.453Z,3.83
2018-09-14T15:05:40.427Z,5.83
2018-09-14T15:08:09.544Z,5.00
2018-09-14T15:10:38.743Z,6.10
2018-09-14T15:13:07.524Z,3.83
2018-09-14T15:15:36.455Z,7.85
2018-09-14T15:18:05.945Z,7.25
2018-09-14T15:20:34.817Z,6.05
2018-09-14T15:23:03.591Z,9.78
2018-09-14T15:25:32.614Z,5.95
2018-09-14T15:28:01.446Z,5.58
2018-09-14T15:30:30.437Z,5.22
2018-09-14T15:32:59.487Z,7.75
2018-09-14T15:35:28.505Z,8.03
2018-09-14T15:37:57.501Z,8.95
2018-09-14T15:40:26.447Z,6.08
2018-09-14T15:42:55.345Z,6.15
2018-09-14T15:45:24.336Z,5.00
2018-09-14T15:47:53.782Z,4.45
2018-09-14T15:50:22.772Z,4.83
2018-09-14T15:52:51.679Z,6.78
2018-09-14T15:55:21.119Z,8.70
2018-09-14T15:57:50.275Z,6.22
2018-09-14T16:00:21.963Z,10.28
2018-09-14T16:02:52.469Z,7.40
2018-09-14T16:05:21.492Z,8.00
2018-09-14T16:07:50.767Z,7.00
2018-09-14T16:10:19.984Z,8.75
2018-09-14T16:12:49.152Z,10.18
2018-09-14T16:15:18.108Z,10.18
2018-09-14T16:17:46.849Z,8.70
2018-09-14T16:20:15.805Z,9.15
2018-09-14T16:22:44.953Z,5.87
2018-09-14T16:25:13.846Z,7.87
2018-09-14T16:27:42.760Z,6.40
2018-09-14T16:30:11.533Z,6.42
2018-09-14T16:32:40.338Z,9.78
2018-09-14T16:35:09.485Z,8.35
2018-09-14T16:37:38.329Z,11.28
2018-09-14T16:40:07.416Z,9.58
2018-09-14T16:42:36.504Z,8.20
2018-09-14T16:45:05.850Z,7.42
2018-09-14T16:47:34.689Z,11.45
2018-09-14T16:50:04.012Z,7.80
2018-09-14T16:52:32.965Z,8.65
2018-09-14T16:55:01.796Z,12.18
2018-09-14T16:57:31.087Z,25.05
2018-09-14T17:00:00.062Z,11.03
2018-09-14T17:03:32.176Z,12.10
2018-09-14T17:06:01.365Z,11.55
2018-09-14T17:08:30.241Z,14.63
2018-09-14T17:10:59.357Z,17.80
2018-09-14T17:13:28.261Z,12.58
2018-09-14T17:15:57.167Z,11.88
2018-09-14T17:18:26.077Z,15.08
2018-09-14T17:20:54.905Z,13.43
2018-09-14T17:23:23.757Z,17.70
2018-09-14T17:25:52.561Z,16.67
2018-09-14T17:28:21.397Z,11.88
2018-09-14T17:30:50.240Z,16.77
2018-09-14T17:33:19.141Z,20.68
2018-09-14T17:35:47.872Z,14.05
2018-09-14T17:38:16.660Z,17.48
2018-09-14T17:40:45.865Z,18.65
2018-09-14T17:43:14.721Z,26.40
2018-09-14T17:45:43.509Z,25.80
2018-09-14T17:48:12.301Z,15.80
2018-09-14T17:50:41.124Z,23.18
2018-09-14T17:53:09.867Z,17.15
2018-09-14T17:55:39.018Z,18.15
2018-09-14T17:58:07.719Z,14.83
2018-09-14T18:00:36.601Z,16.35
2018-09-14T18:03:05.900Z,20.17
2018-09-14T18:05:34.707Z,15.90
2018-09-14T18:08:03.437Z,16.67
2018-09-14T18:10:32.406Z,15.80
2018-09-14T18:13:01.256Z,22.48
2018-09-14T18:15:30.063Z,12.93
2018-09-14T18:17:59.046Z,21.33
2018-09-14T18:20:27.936Z,24.97
2018-09-14T18:22:56.739Z,12.20
2018-09-14T18:25:25.858Z,15.70
2018-09-14T18:27:54.863Z,15.00
2018-09-14T18:30:23.622Z,13.20
2018-09-14T18:32:53.001Z,15.45
2018-09-14T18:35:21.923Z,17.27
2018-09-14T18:37:50.663Z,20.70
2018-09-14T18:40:19.827Z,18.57
2018-09-14T18:42:48.683Z,20.07
2018-09-14T18:45:17.566Z,21.23
2018-09-14T18:47:46.424Z,22.17
2018-09-14T18:50:15.246Z,22.50
2018-09-14T18:52:44.169Z,20.63
2018-09-14T18:55:13.061Z,28.80
2018-09-14T18:57:41.948Z,22.03
2018-09-14T19:00:10.745Z,19.97
2018-09-14T19:02:40.006Z,20.53
2018-09-14T19:05:08.786Z,21.27
2018-09-14T19:07:37.619Z,18.80
2018-09-14T19:10:07.266Z,14.37
2018-09-14T19:12:36.152Z,22.17
2018-09-14T19:15:05.013Z,18.87
2018-09-14T19:17:34.075Z,21.60
2018-09-14T19:20:02.868Z,23.07
2018-09-14T19:22:31.824Z,15.50
2018-09-14T19:25:01.635Z,22.93
2018-09-14T19:27:30.444Z,21.67
2018-09-14T19:29:59.305Z,21.87
2018-09-14T19:32:28.246Z,21.40
2018-09-14T19:34:57.114Z,19.00
2018-09-14T19:37:26.037Z,21.37
2018-09-14T19:39:54.876Z,26.00
2018-09-14T19:42:23.864Z,23.83
2018-09-14T19:44:52.627Z,20.73
2018-09-14T19:47:21.699Z,16.73
2018-09-14T19:49:50.661Z,19.93
2018-09-14T19:52:19.518Z,13.93
2018-09-14T19:54:48.877Z,16.70
2018-09-14T19:57:17.710Z,16.93
2018-09-14T19:59:46.435Z,22.43
2018-09-14T20:02:15.559Z,16.77
2018-09-14T20:04:44.356Z,16.30
2018-09-14T20:07:13.183Z,18.53
2018-09-14T20:09:42.508Z,14.57
2018-09-14T20:12:11.472Z,14.27
2018-09-14T20:14:40.363Z,10.17
2018-09-14T20:17:09.304Z,9.97
2018-09-14T20:19:38.089Z,13.60
2018-09-14T20:22:07.542Z,11.13
2018-09-14T20:24:36.767Z,8.30
2018-09-14T20:27:05.655Z,10.57
2018-09-14T20:29:34.520Z,6.43
2018-09-14T20:32:03.843Z,8.17
2018-09-14T20:34:32.628Z,8.33
2018-09-14T20:37:01.558Z,10.70
2018-09-14T20:39:30.925Z,9.93
2018-09-14T20:41:59.771Z,8.57
2018-09-14T20:44:29.170Z,6.33
2018-09-14T20:46:58.610Z,8.30
2018-09-14T20:49:27.435Z,9.23
2018-09-14T20:51:56.219Z,8.00
2018-09-14T20:54:25.104Z,9.10
2018-09-14T20:56:54.045Z,8.47
2018-09-14T20:59:22.967Z,10.00
2018-09-14T21:01:52.144Z,12.70
2018-09-14T21:04:20.898Z,12.63
2018-09-14T21:06:49.609Z,12.40
2018-09-14T21:09:18.743Z,12.67
2018-09-14T21:11:47.508Z,10.57
2018-09-14T21:14:16.360Z,10.20
2018-09-14T21:16:45.228Z,11.80
2018-09-14T21:19:14.081Z,12.87
2018-09-14T21:21:42.850Z,12.67
2018-09-14T21:24:12.113Z,17.60
2018-09-14T21:26:40.960Z,16.23
2018-09-14T21:29:09.711Z,15.53
2018-09-14T21:31:39.096Z,18.37
2018-09-14T21:34:07.965Z,17.53
2018-09-14T21:36:36.877Z,18.80
2018-09-14T21:39:09.340Z,16.67
2018-09-14T21:41:38.098Z,14.73
2018-09-14T21:44:07.102Z,14.73
2018-09-14T21:46:36.213Z,15.73
2018-09-14T21:49:05.065Z,15.30
2018-09-14T21:51:33.859Z,9.87
2018-09-14T21:54:03.135Z,14.37
2018-09-14T21:56:31.970Z,9.43
2018-09-14T21:59:00.866Z,12.70
2018-09-14T22:01:30.659Z,11.00
2018-09-14T22:04:00.725Z,13.47
2018-09-14T22:06:29.711Z,10.43
2018-09-14T22:08:58.579Z,11.10
2018-09-14T22:11:27.455Z,12.10
2018-09-14T22:13:56.309Z,12.23
2018-09-14T22:16:25.557Z,10.43
2018-09-14T22:18:54.416Z,11.80
2018-09-14T22:21:23.195Z,10.67
2018-09-14T22:23:52.212Z,14.37
2018-09-14T22:26:21.086Z,11.00
2018-09-14T22:28:49.833Z,12.70
2018-09-14T22:31:19.131Z,11.57
2018-09-14T22:33:47.845Z,13.17
2018-09-14T22:36:16.706Z,10.53
2018-09-14T22:38:45.935Z,12.40
2018-09-14T22:41:14.873Z,8.70
2018-09-14T22:43:43.736Z,10.03
2018-09-14T22:46:12.537Z,8.63
2018-09-14T22:48:41.354Z,10.00
2018-09-14T22:51:10.113Z,9.03
2018-09-14T22:53:39.354Z,12.03
2018-09-14T22:56:08.210Z,8.03
2018-09-14T22:58:36.968Z,9.87
2018-09-14T23:01:10.975Z,10.47
2018-09-14T23:03:39.847Z,7.87
2018-09-14T23:06:08.624Z,8.67
2018-09-14T23:08:37.874Z,10.97
2018-09-14T23:11:06.969Z,8.30
2018-09-14T23:13:35.851Z,9.63
2018-09-14T23:16:04.975Z,8.10
2018-09-14T23:18:33.845Z,10.33
2018-09-14T23:21:02.681Z,8.63
2018-09-14T23:23:31.836Z,9.03
2018-09-14T23:26:07.153Z,7.77
2018-09-14T23:28:36.387Z,9.37
2018-09-14T23:31:05.242Z,10.53
2018-09-14T23:33:34.128Z,8.63
2018-09-14T23:36:03.428Z,8.80
2018-09-14T23:38:32.336Z,9.70
2018-09-14T23:41:01.215Z,8.80
2018-09-14T23:43:30.298Z,8.60
2018-09-14T23:45:59.132Z,7.07
2018-09-14T23:48:27.983Z,8.53
2018-09-14T23:50:57.206Z,8.77
2018-09-14T23:53:26.088Z,8.20
2018-09-14T23:55:54.840Z,7.80
2018-09-14T23:58:23.986Z,7.90
